sensor_id;sensor_type;location;lat;lon;timestamp;P1;durP1;ratioP1;P2;durP2;ratioP2
18046;SDS011;9148;51.454;13.862;2023-05-07T00:01:46;5.23;;;4.00;;
18046;SDS011;9148;51.454;13.862;2023-05-07T00:04:12;3.03;;;2.73;;
18046;SDS011;9148;51.454;13.862;2023-05-07T00:06:38;4.10;;;3.13;;
18046;SDS011;9148;51.454;13.862;2023-05-07T00:09:04;5.03;;;3.30;;
18046;SDS011;9148;51.454;13.862;2023-05-07T00:11:31;6.60;;;3.90;;
18046;SDS011;9148;51.454;13.862;2023-05-07T00:13:57;2.87;;;2.27;;
18046;SDS011;9148;51.454;13.862;2023-05-07T00:16:23;4.37;;;3.03;;
18046;SDS011;9148;51.454;13.862;2023-05-07T00:18:48;3.63;;;3.37;;
18046;SDS011;9148;51.454;13.862;2023-05-07T00:21:14;4.50;;;3.17;;
18046;SDS011;9148;51.454;13.862;2023-05-07T00:23:40;2.33;;;2.10;;
18046;SDS011;9148;51.454;13.862;2023-05-07T00:26:05;3.60;;;2.30;;
18046;SDS011;9148;51.454;13.862;2023-05-07T00:28:31;2.53;;;2.33;;
18046;SDS011;9148;51.454;13.862;2023-05-07T00:30:57;4.33;;;2.87;;
18046;SDS011;9148;51.454;13.862;2023-05-07T00:33:22;3.50;;;2.73;;
18046;SDS011;9148;51.454;13.862;2023-05-07T00:35:48;5.37;;;2.90;;
18046;SDS011;9148;51.454;13.862;2023-05-07T00:38:14;2.93;;;2.27;;
18046;SDS011;9148;51.454;13.862;2023-05-07T00:40:40;4.43;;;2.83;;
18046;SDS011;9148;51.454;13.862;2023-05-07T00:43:06;3.77;;;3.13;;
18046;SDS011;9148;51.454;13.862;2023-05-07T00:45:32;7.33;;;4.13;;
18046;SDS011;9148;51.454;13.862;2023-05-07T00:48:01;3.80;;;3.00;;
18046;SDS011;9148;51.454;13.862;2023-05-07T00:50:28;4.60;;;4.07;;
18046;SDS011;9148;51.454;13.862;2023-05-07T00:52:54;4.03;;;3.17;;
18046;SDS011;9148;51.454;13.862;2023-05-07T00:55:21;4.90;;;3.67;;
18046;SDS011;9148;51.454;13.862;2023-05-07T00:57:48;4.73;;;4.03;;
18046;SDS011;9148;51.454;13.862;2023-05-07T01:00:15;6.73;;;3.20;;
18046;SDS011;9148;51.454;13.862;2023-05-07T01:02:42;4.53;;;2.90;;
18046;SDS011;9148;51.454;13.862;2023-05-07T01:05:09;3.87;;;3.13;;
18046;SDS011;9148;51.454;13.862;2023-05-07T01:07:37;4.47;;;3.70;;
18046;SDS011;9148;51.454;13.862;2023-05-07T01:10:05;5.40;;;3.73;;
18046;SDS011;9148;51.454;13.862;2023-05-07T01:12:32;4.67;;;3.73;;
18046;SDS011;9148;51.454;13.862;2023-05-07T01:14:59;5.47;;;3.27;;
18046;SDS011;9148;51.454;13.862;2023-05-07T01:17:25;4.00;;;3.20;;
18046;SDS011;9148;51.454;13.862;2023-05-07T01:19:51;4.00;;;3.10;;
18046;SDS011;9148;51.454;13.862;2023-05-07T01:22:23;5.03;;;3.17;;
18046;SDS011;9148;51.454;13.862;2023-05-07T01:25:01;4.73;;;2.60;;
18046;SDS011;9148;51.454;13.862;2023-05-07T01:27:28;3.13;;;2.83;;
18046;SDS011;9148;51.454;13.862;2023-05-07T01:29:54;4.43;;;3.23;;
18046;SDS011;9148;51.454;13.862;2023-05-07T01:32:21;4.43;;;2.87;;
18046;SDS011;9148;51.454;13.862;2023-05-07T01:35:11;4.43;;;3.10;;
18046;SDS011;9148;51.454;13.862;2023-05-07T01:37:42;4.57;;;3.67;;
18046;SDS011;9148;51.454;13.862;2023-05-07T01:40:08;6.17;;;2.87;;
18046;SDS011;9148;51.454;13.862;2023-05-07T01:42:34;3.37;;;3.07;;
18046;SDS011;9148;51.454;13.862;2023-05-07T01:45:00;3.43;;;3.13;;
18046;SDS011;9148;51.454;13.862;2023-05-07T01:47:27;3.70;;;3.23;;
18046;SDS011;9148;51.454;13.862;2023-05-07T01:49:54;5.53;;;3.77;;
18046;SDS011;9148;51.454;13.862;2023-05-07T01:52:20;4.60;;;2.90;;
18046;SDS011;9148;51.454;13.862;2023-05-07T01:54:46;2.50;;;2.30;;
18046;SDS011;9148;51.454;13.862;2023-05-07T01:57:11;2.40;;;2.20;;
18046;SDS011;9148;51.454;13.862;2023-05-07T01:59:37;4.17;;;2.77;;
18046;SDS011;9148;51.454;13.862;2023-05-07T02:02:03;4.03;;;2.80;;
18046;SDS011;9148;51.454;13.862;2023-05-07T02:04:28;2.73;;;1.93;;
18046;SDS011;9148;51.454;13.862;2023-05-07T02:06:54;3.67;;;2.57;;
18046;SDS011;9148;51.454;13.862;2023-05-07T02:09:20;4.67;;;2.50;;
18046;SDS011;9148;51.454;13.862;2023-05-07T02:11:47;4.13;;;2.67;;
18046;SDS011;9148;51.454;13.862;2023-05-07T02:14:12;3.03;;;2.70;;
18046;SDS011;9148;51.454;13.862;2023-05-07T02:16:38;4.93;;;2.80;;
18046;SDS011;9148;51.454;13.862;2023-05-07T02:19:03;2.67;;;2.37;;
18046;SDS011;9148;51.454;13.862;2023-05-07T02:21:30;2.47;;;2.03;;
18046;SDS011;9148;51.454;13.862;2023-05-07T02:23:55;2.17;;;1.97;;
18046;SDS011;9148;51.454;13.862;2023-05-07T02:26:21;4.50;;;3.07;;
18046;SDS011;9148;51.454;13.862;2023-05-07T02:28:47;3.83;;;3.00;;
18046;SDS011;9148;51.454;13.862;2023-05-07T02:31:12;3.87;;;2.87;;
18046;SDS011;9148;51.454;13.862;2023-05-07T02:33:38;3.87;;;2.90;;
18046;SDS011;9148;51.454;13.862;2023-05-07T02:36:07;8.87;;;4.63;;
18046;SDS011;9148;51.454;13.862;2023-05-07T02:38:34;3.10;;;2.30;;
18046;SDS011;9148;51.454;13.862;2023-05-07T02:41:01;3.63;;;3.20;;
18046;SDS011;9148;51.454;13.862;2023-05-07T02:43:27;6.13;;;3.90;;
18046;SDS011;9148;51.454;13.862;2023-05-07T02:46:00;3.57;;;3.07;;
18046;SDS011;9148;51.454;13.862;2023-05-07T02:48:27;2.67;;;2.47;;
18046;SDS011;9148;51.454;13.862;2023-05-07T02:50:53;3.83;;;3.40;;
18046;SDS011;9148;51.454;13.862;2023-05-07T02:53:19;4.13;;;3.10;;
18046;SDS011;9148;51.454;13.862;2023-05-07T02:55:44;3.87;;;3.40;;
18046;SDS011;9148;51.454;13.862;2023-05-07T02:58:10;3.77;;;3.47;;
18046;SDS011;9148;51.454;13.862;2023-05-07T03:00:36;4.10;;;3.43;;
18046;SDS011;9148;51.454;13.862;2023-05-07T03:03:01;4.60;;;3.40;;
18046;SDS011;9148;51.454;13.862;2023-05-07T03:05:27;4.73;;;4.00;;
18046;SDS011;9148;51.454;13.862;2023-05-07T03:07:53;4.97;;;3.50;;
18046;SDS011;9148;51.454;13.862;2023-05-07T03:10:18;4.67;;;3.70;;
18046;SDS011;9148;51.454;13.862;2023-05-07T03:12:44;5.63;;;4.23;;
18046;SDS011;9148;51.454;13.862;2023-05-07T03:15:10;4.27;;;3.40;;
18046;SDS011;9148;51.454;13.862;2023-05-07T03:17:37;4.93;;;4.20;;
18046;SDS011;9148;51.454;13.862;2023-05-07T03:20:03;5.17;;;3.20;;
18046;SDS011;9148;51.454;13.862;2023-05-07T03:22:30;4.33;;;2.57;;
18046;SDS011;9148;51.454;13.862;2023-05-07T03:24:55;6.13;;;3.50;;
18046;SDS011;9148;51.454;13.862;2023-05-07T03:27:21;3.63;;;3.03;;
18046;SDS011;9148;51.454;13.862;2023-05-07T03:29:50;6.27;;;3.73;;
18046;SDS011;9148;51.454;13.862;2023-05-07T03:32:15;5.37;;;4.00;;
18046;SDS011;9148;51.454;13.862;2023-05-07T03:34:41;2.93;;;2.70;;
18046;SDS011;9148;51.454;13.862;2023-05-07T03:37:06;3.53;;;2.43;;
18046;SDS011;9148;51.454;13.862;2023-05-07T03:39:32;5.37;;;3.13;;
18046;SDS011;9148;51.454;13.862;2023-05-07T03:41:58;3.90;;;2.90;;
18046;SDS011;9148;51.454;13.862;2023-05-07T03:44:23;3.33;;;2.87;;
18046;SDS011;9148;51.454;13.862;2023-05-07T03:46:49;4.53;;;3.27;;
18046;SDS011;9148;51.454;13.862;2023-05-07T03:49:15;3.33;;;2.33;;
18046;SDS011;9148;51.454;13.862;2023-05-07T03:51:40;3.00;;;2.37;;
18046;SDS011;9148;51.454;13.862;2023-05-07T03:54:06;2.30;;;2.10;;
18046;SDS011;9148;51.454;13.862;2023-05-07T03:56:32;2.63;;;2.43;;
18046;SDS011;9148;51.454;13.862;2023-05-07T03:58:58;3.83;;;2.93;;
18046;SDS011;9148;51.454;13.862;2023-05-07T04:01:25;3.23;;;2.50;;
18046;SDS011;9148;51.454;13.862;2023-05-07T04:03:51;4.20;;;2.73;;
18046;SDS011;9148;51.454;13.862;2023-05-07T04:06:17;3.57;;;2.40;;
18046;SDS011;9148;51.454;13.862;2023-05-07T04:08:42;6.07;;;2.77;;
18046;SDS011;9148;51.454;13.862;2023-05-07T04:11:08;3.43;;;2.37;;
18046;SDS011;9148;51.454;13.862;2023-05-07T04:13:34;2.43;;;2.23;;
18046;SDS011;9148;51.454;13.862;2023-05-07T04:16:01;1.90;;;1.80;;
18046;SDS011;9148;51.454;13.862;2023-05-07T04:18:28;3.40;;;2.30;;
18046;SDS011;9148;51.454;13.862;2023-05-07T04:20:54;2.90;;;2.60;;
18046;SDS011;9148;51.454;13.862;2023-05-07T04:23:20;3.17;;;2.43;;
18046;SDS011;9148;51.454;13.862;2023-05-07T04:25:46;3.60;;;2.57;;
18046;SDS011;9148;51.454;13.862;2023-05-07T04:28:12;4.93;;;2.53;;
18046;SDS011;9148;51.454;13.862;2023-05-07T04:30:38;2.43;;;2.23;;
18046;SDS011;9148;51.454;13.862;2023-05-07T04:33:04;1.93;;;1.80;;
18046;SDS011;9148;51.454;13.862;2023-05-07T04:35:31;2.37;;;2.17;;
18046;SDS011;9148;51.454;13.862;2023-05-07T04:37:57;2.17;;;2.00;;
18046;SDS011;9148;51.454;13.862;2023-05-07T04:40:23;3.20;;;2.27;;
18046;SDS011;9148;51.454;13.862;2023-05-07T04:42:48;2.50;;;2.30;;
18046;SDS011;9148;51.454;13.862;2023-05-07T04:45:14;2.50;;;2.30;;
18046;SDS011;9148;51.454;13.862;2023-05-07T04:47:40;3.77;;;2.33;;
18046;SDS011;9148;51.454;13.862;2023-05-07T04:50:06;3.60;;;2.10;;
18046;SDS011;9148;51.454;13.862;2023-05-07T04:52:33;3.20;;;2.87;;
18046;SDS011;9148;51.454;13.862;2023-05-07T04:54:59;5.00;;;2.37;;
18046;SDS011;9148;51.454;13.862;2023-05-07T04:57:25;3.13;;;2.80;;
18046;SDS011;9148;51.454;13.862;2023-05-07T04:59:52;2.63;;;2.43;;
18046;SDS011;9148;51.454;13.862;2023-05-07T05:02:18;2.70;;;1.97;;
18046;SDS011;9148;51.454;13.862;2023-05-07T05:04:44;6.07;;;2.83;;
18046;SDS011;9148;51.454;13.862;2023-05-07T05:07:19;4.47;;;3.13;;
18046;SDS011;9148;51.454;13.862;2023-05-07T05:09:45;2.70;;;2.43;;
18046;SDS011;9148;51.454;13.862;2023-05-07T05:12:10;3.00;;;2.70;;
18046;SDS011;9148;51.454;13.862;2023-05-07T05:14:36;7.13;;;3.73;;
18046;SDS011;9148;51.454;13.862;2023-05-07T05:17:01;3.97;;;3.20;;
18046;SDS011;9148;51.454;13.862;2023-05-07T05:19:27;4.87;;;3.77;;
18046;SDS011;9148;51.454;13.862;2023-05-07T05:21:53;4.13;;;2.67;;
18046;SDS011;9148;51.454;13.862;2023-05-07T05:24:19;2.50;;;2.03;;
18046;SDS011;9148;51.454;13.862;2023-05-07T05:26:45;2.50;;;2.30;;
18046;SDS011;9148;51.454;13.862;2023-05-07T05:29:10;7.07;;;2.70;;
18046;SDS011;9148;51.454;13.862;2023-05-07T05:31:36;3.90;;;2.60;;
18046;SDS011;9148;51.454;13.862;2023-05-07T05:34:02;4.43;;;2.90;;
18046;SDS011;9148;51.454;13.862;2023-05-07T05:36:28;2.93;;;2.10;;
18046;SDS011;9148;51.454;13.862;2023-05-07T05:38:55;4.57;;;3.17;;
18046;SDS011;9148;51.454;13.862;2023-05-07T05:41:21;4.77;;;3.07;;
18046;SDS011;9148;51.454;13.862;2023-05-07T05:43:46;4.30;;;2.57;;
18046;SDS011;9148;51.454;13.862;2023-05-07T05:46:12;3.00;;;2.67;;
18046;SDS011;9148;51.454;13.862;2023-05-07T05:48:38;3.03;;;2.67;;
18046;SDS011;9148;51.454;13.862;2023-05-07T05:51:03;5.03;;;3.07;;
18046;SDS011;9148;51.454;13.862;2023-05-07T05:53:29;5.10;;;2.77;;
18046;SDS011;9148;51.454;13.862;2023-05-07T05:55:55;4.37;;;2.60;;
18046;SDS011;9148;51.454;13.862;2023-05-07T05:58:20;6.30;;;2.80;;
18046;SDS011;9148;51.454;13.862;2023-05-07T06:00:46;3.47;;;2.20;;
18046;SDS011;9148;51.454;13.862;2023-05-07T06:03:13;6.63;;;2.83;;
18046;SDS011;9148;51.454;13.862;2023-05-07T06:05:39;2.63;;;2.37;;
18046;SDS011;9148;51.454;13.862;2023-05-07T06:08:04;5.50;;;2.27;;
18046;SDS011;9148;51.454;13.862;2023-05-07T06:10:30;2.47;;;2.27;;
18046;SDS011;9148;51.454;13.862;2023-05-07T06:12:55;2.97;;;2.57;;
18046;SDS011;9148;51.454;13.862;2023-05-07T06:15:21;3.07;;;1.90;;
18046;SDS011;9148;51.454;13.862;2023-05-07T06:17:47;3.00;;;2.27;;
18046;SDS011;9148;51.454;13.862;2023-05-07T06:20:13;3.63;;;2.53;;
18046;SDS011;9148;51.454;13.862;2023-05-07T06:22:39;2.50;;;1.47;;
18046;SDS011;9148;51.454;13.862;2023-05-07T06:25:05;2.33;;;1.97;;
18046;SDS011;9148;51.454;13.862;2023-05-07T06:27:37;2.33;;;1.80;;
18046;SDS011;9148;51.454;13.862;2023-05-07T06:30:04;1.93;;;1.57;;
18046;SDS011;9148;51.454;13.862;2023-05-07T06:32:31;1.60;;;1.50;;
18046;SDS011;9148;51.454;13.862;2023-05-07T06:34:57;1.77;;;1.27;;
18046;SDS011;9148;51.454;13.862;2023-05-07T06:37:22;4.00;;;2.03;;
18046;SDS011;9148;51.454;13.862;2023-05-07T06:39:48;2.27;;;2.00;;
18046;SDS011;9148;51.454;13.862;2023-05-07T06:42:14;2.23;;;2.07;;
18046;SDS011;9148;51.454;13.862;2023-05-07T06:44:39;3.37;;;2.07;;
18046;SDS011;9148;51.454;13.862;2023-05-07T06:47:05;3.10;;;1.83;;
18046;SDS011;9148;51.454;13.862;2023-05-07T06:49:31;2.57;;;2.23;;
18046;SDS011;9148;51.454;13.862;2023-05-07T06:51:56;2.03;;;1.70;;
18046;SDS011;9148;51.454;13.862;2023-05-07T06:54:22;3.87;;;2.70;;
18046;SDS011;9148;51.454;13.862;2023-05-07T06:56:48;1.93;;;1.77;;
18046;SDS011;9148;51.454;13.862;2023-05-07T06:59:13;2.83;;;2.10;;
18046;SDS011;9148;51.454;13.862;2023-05-07T07:01:39;2.20;;;2.00;;
18046;SDS011;9148;51.454;13.862;2023-05-07T07:04:05;6.73;;;2.77;;
18046;SDS011;9148;51.454;13.862;2023-05-07T07:06:31;3.67;;;3.37;;
18046;SDS011;9148;51.454;13.862;2023-05-07T07:08:57;2.53;;;2.33;;
18046;SDS011;9148;51.454;13.862;2023-05-07T07:11:24;3.23;;;2.67;;
18046;SDS011;9148;51.454;13.862;2023-05-07T07:13:49;2.37;;;2.17;;
18046;SDS011;9148;51.454;13.862;2023-05-07T07:16:15;7.93;;;3.00;;
18046;SDS011;9148;51.454;13.862;2023-05-07T07:18:41;3.50;;;2.50;;
18046;SDS011;9148;51.454;13.862;2023-05-07T07:21:07;2.80;;;1.87;;
18046;SDS011;9148;51.454;13.862;2023-05-07T07:23:33;2.73;;;2.03;;
18046;SDS011;9148;51.454;13.862;2023-05-07T07:25:58;3.37;;;2.20;;
18046;SDS011;9148;51.454;13.862;2023-05-07T07:28:24;2.47;;;1.87;;
18046;SDS011;9148;51.454;13.862;2023-05-07T07:30:49;3.30;;;2.00;;
18046;SDS011;9148;51.454;13.862;2023-05-07T07:33:15;2.27;;;1.60;;
18046;SDS011;9148;51.454;13.862;2023-05-07T07:35:41;2.20;;;2.00;;
18046;SDS011;9148;51.454;13.862;2023-05-07T07:38:07;2.07;;;1.93;;
18046;SDS011;9148;51.454;13.862;2023-05-07T07:40:34;3.27;;;2.03;;
18046;SDS011;9148;51.454;13.862;2023-05-07T07:43:00;3.80;;;2.37;;
18046;SDS011;9148;51.454;13.862;2023-05-07T07:45:26;5.30;;;3.40;;
18046;SDS011;9148;51.454;13.862;2023-05-07T07:47:52;3.20;;;2.67;;
18046;SDS011;9148;51.454;13.862;2023-05-07T07:50:18;12.50;;;2.97;;
18046;SDS011;9148;51.454;13.862;2023-05-07T07:52:44;4.13;;;2.63;;
18046;SDS011;9148;51.454;13.862;2023-05-07T07:55:10;2.53;;;2.33;;
18046;SDS011;9148;51.454;13.862;2023-05-07T07:57:35;6.30;;;3.73;;
18046;SDS011;9148;51.454;13.862;2023-05-07T08:00:01;2.63;;;2.43;;
18046;SDS011;9148;51.454;13.862;2023-05-07T08:02:28;5.63;;;3.13;;
18046;SDS011;9148;51.454;13.862;2023-05-07T08:04:53;2.17;;;1.93;;
18046;SDS011;9148;51.454;13.862;2023-05-07T08:07:19;2.63;;;2.30;;
18046;SDS011;9148;51.454;13.862;2023-05-07T08:09:47;5.33;;;2.90;;
18046;SDS011;9148;51.454;13.862;2023-05-07T08:12:13;4.27;;;3.40;;
18046;SDS011;9148;51.454;13.862;2023-05-07T08:14:39;4.23;;;3.87;;
18046;SDS011;9148;51.454;13.862;2023-05-07T08:17:05;6.07;;;3.83;;
18046;SDS011;9148;51.454;13.862;2023-05-07T08:19:30;2.77;;;2.30;;
18046;SDS011;9148;51.454;13.862;2023-05-07T08:21:56;3.47;;;3.17;;
18046;SDS011;9148;51.454;13.862;2023-05-07T08:24:22;4.17;;;2.80;;
18046;SDS011;9148;51.454;13.862;2023-05-07T08:26:47;4.83;;;3.07;;
18046;SDS011;9148;51.454;13.862;2023-05-07T08:29:14;5.73;;;3.60;;
18046;SDS011;9148;51.454;13.862;2023-05-07T08:31:40;3.57;;;3.27;;
18046;SDS011;9148;51.454;13.862;2023-05-07T08:34:05;5.17;;;3.60;;
18046;SDS011;9148;51.454;13.862;2023-05-07T08:36:31;5.07;;;3.20;;
18046;SDS011;9148;51.454;13.862;2023-05-07T08:38:57;4.53;;;2.93;;
18046;SDS011;9148;51.454;13.862;2023-05-07T08:41:23;3.87;;;3.57;;
18046;SDS011;9148;51.454;13.862;2023-05-07T08:43:49;6.53;;;3.87;;
18046;SDS011;9148;51.454;13.862;2023-05-07T08:46:17;4.20;;;2.57;;
18046;SDS011;9148;51.454;13.862;2023-05-07T08:48:50;4.10;;;3.33;;
18046;SDS011;9148;51.454;13.862;2023-05-07T08:51:17;3.70;;;2.83;;
18046;SDS011;9148;51.454;13.862;2023-05-07T08:53:45;5.00;;;3.33;;
18046;SDS011;9148;51.454;13.862;2023-05-07T08:56:16;3.87;;;3.33;;
18046;SDS011;9148;51.454;13.862;2023-05-07T08:58:42;3.07;;;2.77;;
18046;SDS011;9148;51.454;13.862;2023-05-07T09:01:10;5.47;;;3.07;;
18046;SDS011;9148;51.454;13.862;2023-05-07T09:03:52;3.47;;;2.93;;
18046;SDS011;9148;51.454;13.862;2023-05-07T09:06:18;4.07;;;2.53;;
18046;SDS011;9148;51.454;13.862;2023-05-07T09:08:48;3.53;;;2.83;;
18046;SDS011;9148;51.454;13.862;2023-05-07T09:11:16;2.67;;;2.23;;
18046;SDS011;9148;51.454;13.862;2023-05-07T09:13:49;3.67;;;2.57;;
18046;SDS011;9148;51.454;13.862;2023-05-07T09:16:22;3.37;;;2.00;;
18046;SDS011;9148;51.454;13.862;2023-05-07T09:18:52;4.10;;;3.10;;
18046;SDS011;9148;51.454;13.862;2023-05-07T09:21:19;2.67;;;2.43;;
18046;SDS011;9148;51.454;13.862;2023-05-07T09:23:48;3.47;;;2.53;;
18046;SDS011;9148;51.454;13.862;2023-05-07T09:26:16;5.23;;;2.73;;
18046;SDS011;9148;51.454;13.862;2023-05-07T09:28:41;1.90;;;1.80;;
18046;SDS011;9148;51.454;13.862;2023-05-07T09:31:08;3.47;;;2.00;;
18046;SDS011;9148;51.454;13.862;2023-05-07T09:33:35;2.50;;;2.30;;
18046;SDS011;9148;51.454;13.862;2023-05-07T09:36:08;1.70;;;1.60;;
18046;SDS011;9148;51.454;13.862;2023-05-07T09:38:35;4.80;;;2.00;;
18046;SDS011;9148;51.454;13.862;2023-05-07T09:41:02;2.30;;;2.03;;
18046;SDS011;9148;51.454;13.862;2023-05-07T09:43:33;5.47;;;3.53;;
18046;SDS011;9148;51.454;13.862;2023-05-07T09:46:03;2.90;;;1.90;;
18046;SDS011;9148;51.454;13.862;2023-05-07T09:48:40;1.73;;;1.63;;
18046;SDS011;9148;51.454;13.862;2023-05-07T09:53:59;2.33;;;1.77;;
18046;SDS011;9148;51.454;13.862;2023-05-07T09:56:29;1.57;;;1.47;;
18046;SDS011;9148;51.454;13.862;2023-05-07T09:58:56;1.60;;;1.50;;
18046;SDS011;9148;51.454;13.862;2023-05-07T10:01:25;2.10;;;1.23;;
18046;SDS011;9148;51.454;13.862;2023-05-07T10:03:52;3.17;;;1.73;;
18046;SDS011;9148;51.454;13.862;2023-05-07T10:06:21;3.87;;;1.90;;
18046;SDS011;9148;51.454;13.862;2023-05-07T10:08:50;1.10;;;1.00;;
18046;SDS011;9148;51.454;13.862;2023-05-07T10:11:17;2.00;;;1.80;;
18046;SDS011;9148;51.454;13.862;2023-05-07T10:13:43;3.30;;;1.33;;
18046;SDS011;9148;51.454;13.862;2023-05-07T10:16:10;3.03;;;1.83;;
18046;SDS011;9148;51.454;13.862;2023-05-07T10:18:36;2.10;;;1.57;;
18046;SDS011;9148;51.454;13.862;2023-05-07T10:23:55;1.60;;;1.23;;
18046;SDS011;9148;51.454;13.862;2023-05-07T10:26:31;1.50;;;1.17;;
18046;SDS011;9148;51.454;13.862;2023-05-07T10:29:03;1.63;;;0.93;;
18046;SDS011;9148;51.454;13.862;2023-05-07T10:34:40;1.17;;;1.07;;
18046;SDS011;9148;51.454;13.862;2023-05-07T10:37:10;1.20;;;1.10;;
18046;SDS011;9148;51.454;13.862;2023-05-07T10:39:37;1.10;;;0.87;;
18046;SDS011;9148;51.454;13.862;2023-05-07T10:42:12;1.60;;;1.23;;
18046;SDS011;9148;51.454;13.862;2023-05-07T10:44:39;2.50;;;1.13;;
18046;SDS011;9148;51.454;13.862;2023-05-07T10:47:06;0.67;;;0.67;;
18046;SDS011;9148;51.454;13.862;2023-05-07T10:54:43;1.70;;;1.17;;
18046;SDS011;9148;51.454;13.862;2023-05-07T10:59:56;1.40;;;0.70;;
18046;SDS011;9148;51.454;13.862;2023-05-07T11:02:22;1.63;;;1.00;;
18046;SDS011;9148;51.454;13.862;2023-05-07T11:07:56;1.70;;;1.23;;
18046;SDS011;9148;51.454;13.862;2023-05-07T11:13:42;1.63;;;1.43;;
18046;SDS011;9148;51.454;13.862;2023-05-07T11:16:19;1.27;;;1.17;;
18046;SDS011;9148;51.454;13.862;2023-05-07T11:18:49;1.40;;;1.30;;
18046;SDS011;9148;51.454;13.862;2023-05-07T11:21:33;1.40;;;1.30;;
18046;SDS011;9148;51.454;13.862;2023-05-07T11:24:04;0.80;;;0.80;;
18046;SDS011;9148;51.454;13.862;2023-05-07T11:26:46;0.87;;;0.70;;
18046;SDS011;9148;51.454;13.862;2023-05-07T11:29:19;1.17;;;1.07;;
18046;SDS011;9148;51.454;13.862;2023-05-07T11:31:50;1.47;;;0.83;;
18046;SDS011;9148;51.454;13.862;2023-05-07T11:34:21;1.30;;;1.17;;
18046;SDS011;9148;51.454;13.862;2023-05-07T11:36:48;2.90;;;1.13;;
18046;SDS011;9148;51.454;13.862;2023-05-07T11:39:24;1.47;;;1.33;;
18046;SDS011;9148;51.454;13.862;2023-05-07T11:41:50;1.00;;;0.87;;
18046;SDS011;9148;51.454;13.862;2023-05-07T11:44:56;1.50;;;1.40;;
18046;SDS011;9148;51.454;13.862;2023-05-07T11:47:22;1.27;;;1.13;;
18046;SDS011;9148;51.454;13.862;2023-05-07T11:49:53;1.23;;;1.13;;
18046;SDS011;9148;51.454;13.862;2023-05-07T11:52:20;1.23;;;1.10;;
18046;SDS011;9148;51.454;13.862;2023-05-07T11:54:51;1.63;;;1.40;;
18046;SDS011;9148;51.454;13.862;2023-05-07T11:57:21;1.27;;;1.17;;
18046;SDS011;9148;51.454;13.862;2023-05-07T11:59:52;1.23;;;1.10;;
18046;SDS011;9148;51.454;13.862;2023-05-07T12:02:19;1.23;;;1.13;;
18046;SDS011;9148;51.454;13.862;2023-05-07T12:04:44;2.17;;;1.40;;
18046;SDS011;9148;51.454;13.862;2023-05-07T12:07:14;1.27;;;1.03;;
18046;SDS011;9148;51.454;13.862;2023-05-07T12:09:40;1.53;;;1.07;;
18046;SDS011;9148;51.454;13.862;2023-05-07T12:12:07;1.43;;;1.33;;
18046;SDS011;9148;51.454;13.862;2023-05-07T12:14:37;4.17;;;1.13;;
18046;SDS011;9148;51.454;13.862;2023-05-07T12:17:04;0.97;;;0.97;;
18046;SDS011;9148;51.454;13.862;2023-05-07T12:19:30;1.47;;;1.10;;
18046;SDS011;9148;51.454;13.862;2023-05-07T12:21:56;1.43;;;1.00;;
18046;SDS011;9148;51.454;13.862;2023-05-07T12:24:22;1.77;;;1.47;;
18046;SDS011;9148;51.454;13.862;2023-05-07T12:26:48;0.90;;;0.90;;
18046;SDS011;9148;51.454;13.862;2023-05-07T12:29:14;1.77;;;1.60;;
18046;SDS011;9148;51.454;13.862;2023-05-07T12:31:40;1.73;;;1.63;;
18046;SDS011;9148;51.454;13.862;2023-05-07T12:34:06;1.67;;;1.20;;
18046;SDS011;9148;51.454;13.862;2023-05-07T12:36:36;3.83;;;2.07;;
18046;SDS011;9148;51.454;13.862;2023-05-07T12:39:04;2.47;;;1.30;;
18046;SDS011;9148;51.454;13.862;2023-05-07T12:41:55;4.47;;;1.70;;
18046;SDS011;9148;51.454;13.862;2023-05-07T12:44:24;3.57;;;1.80;;
18046;SDS011;9148;51.454;13.862;2023-05-07T12:46:57;3.63;;;2.07;;
18046;SDS011;9148;51.454;13.862;2023-05-07T12:49:25;1.70;;;1.60;;
18046;SDS011;9148;51.454;13.862;2023-05-07T12:51:51;1.70;;;1.60;;
18046;SDS011;9148;51.454;13.862;2023-05-07T12:54:28;1.60;;;1.50;;
18046;SDS011;9148;51.454;13.862;2023-05-07T12:57:05;2.33;;;1.87;;
18046;SDS011;9148;51.454;13.862;2023-05-07T12:59:33;2.27;;;1.73;;
18046;SDS011;9148;51.454;13.862;2023-05-07T13:02:03;1.70;;;1.60;;
18046;SDS011;9148;51.454;13.862;2023-05-07T13:04:29;1.97;;;1.77;;
18046;SDS011;9148;51.454;13.862;2023-05-07T13:06:55;2.47;;;1.60;;
18046;SDS011;9148;51.454;13.862;2023-05-07T13:09:21;2.43;;;1.67;;
18046;SDS011;9148;51.454;13.862;2023-05-07T13:11:46;3.97;;;1.57;;
18046;SDS011;9148;51.454;13.862;2023-05-07T13:14:12;2.30;;;2.10;;
18046;SDS011;9148;51.454;13.862;2023-05-07T13:16:38;2.43;;;1.70;;
18046;SDS011;9148;51.454;13.862;2023-05-07T13:19:03;1.67;;;1.57;;
18046;SDS011;9148;51.454;13.862;2023-05-07T13:21:29;2.00;;;1.77;;
18046;SDS011;9148;51.454;13.862;2023-05-07T13:23:57;2.27;;;2.07;;
18046;SDS011;9148;51.454;13.862;2023-05-07T13:26:23;1.47;;;1.37;;
18046;SDS011;9148;51.454;13.862;2023-05-07T13:28:49;6.47;;;2.20;;
18046;SDS011;9148;51.454;13.862;2023-05-07T13:31:15;3.13;;;1.83;;
18046;SDS011;9148;51.454;13.862;2023-05-07T13:33:42;2.27;;;1.73;;
18046;SDS011;9148;51.454;13.862;2023-05-07T13:36:08;2.40;;;2.03;;
18046;SDS011;9148;51.454;13.862;2023-05-07T13:38:34;2.40;;;1.80;;
18046;SDS011;9148;51.454;13.862;2023-05-07T13:41:00;4.97;;;2.13;;
18046;SDS011;9148;51.454;13.862;2023-05-07T13:43:25;4.50;;;3.60;;
18046;SDS011;9148;51.454;13.862;2023-05-07T13:45:54;8.53;;;3.97;;
18046;SDS011;9148;51.454;13.862;2023-05-07T13:48:19;2.83;;;1.73;;
18046;SDS011;9148;51.454;13.862;2023-05-07T13:50:45;2.53;;;2.10;;
18046;SDS011;9148;51.454;13.862;2023-05-07T13:53:11;2.57;;;2.07;;
18046;SDS011;9148;51.454;13.862;2023-05-07T13:55:36;2.60;;;1.90;;
18046;SDS011;9148;51.454;13.862;2023-05-07T13:58:02;2.37;;;2.13;;
18046;SDS011;9148;51.454;13.862;2023-05-07T14:00:28;3.13;;;1.97;;
18046;SDS011;9148;51.454;13.862;2023-05-07T14:02:55;3.23;;;2.30;;
18046;SDS011;9148;51.454;13.862;2023-05-07T14:05:21;2.57;;;1.70;;
18046;SDS011;9148;51.454;13.862;2023-05-07T14:07:52;3.83;;;2.47;;
18046;SDS011;9148;51.454;13.862;2023-05-07T14:10:26;3.60;;;2.17;;
18046;SDS011;9148;51.454;13.862;2023-05-07T14:12:51;3.97;;;2.47;;
18046;SDS011;9148;51.454;13.862;2023-05-07T14:15:17;3.47;;;2.27;;
18046;SDS011;9148;51.454;13.862;2023-05-07T14:17:43;4.17;;;2.83;;
18046;SDS011;9148;51.454;13.862;2023-05-07T14:20:09;4.50;;;2.83;;
18046;SDS011;9148;51.454;13.862;2023-05-07T14:22:36;2.33;;;1.97;;
18046;SDS011;9148;51.454;13.862;2023-05-07T14:25:02;5.73;;;2.33;;
18046;SDS011;9148;51.454;13.862;2023-05-07T14:27:28;2.40;;;2.17;;
18046;SDS011;9148;51.454;13.862;2023-05-07T14:29:54;4.27;;;2.60;;
18046;SDS011;9148;51.454;13.862;2023-05-07T14:32:20;4.33;;;2.73;;
18046;SDS011;9148;51.454;13.862;2023-05-07T14:34:46;2.97;;;2.27;;
18046;SDS011;9148;51.454;13.862;2023-05-07T14:37:12;3.80;;;2.10;;
18046;SDS011;9148;51.454;13.862;2023-05-07T14:39:38;2.93;;;2.73;;
18046;SDS011;9148;51.454;13.862;2023-05-07T14:42:04;3.70;;;3.10;;
18046;SDS011;9148;51.454;13.862;2023-05-07T14:44:30;5.87;;;2.93;;
18046;SDS011;9148;51.454;13.862;2023-05-07T14:46:56;2.30;;;2.10;;
18046;SDS011;9148;51.454;13.862;2023-05-07T14:49:22;4.03;;;2.50;;
18046;SDS011;9148;51.454;13.862;2023-05-07T14:51:48;2.07;;;1.67;;
18046;SDS011;9148;51.454;13.862;2023-05-07T14:54:14;5.97;;;2.20;;
18046;SDS011;9148;51.454;13.862;2023-05-07T14:56:40;3.43;;;2.87;;
18046;SDS011;9148;51.454;13.862;2023-05-07T14:59:06;5.50;;;2.07;;
18046;SDS011;9148;51.454;13.862;2023-05-07T15:01:36;1.73;;;1.63;;
18046;SDS011;9148;51.454;13.862;2023-05-07T15:04:02;1.87;;;1.77;;
18046;SDS011;9148;51.454;13.862;2023-05-07T15:06:29;3.20;;;2.03;;
18046;SDS011;9148;51.454;13.862;2023-05-07T15:08:54;2.33;;;1.43;;
18046;SDS011;9148;51.454;13.862;2023-05-07T15:11:20;3.10;;;2.23;;